Time;durP1;ratioP1;P1;durP2;ratioP2;P2;SDS_P1;SDS_P2;PMS_P1;PMS_P2;Temp;Humidity;BMP_temperature;BMP_pressure;BME280_temperature;BME280_humidity;BME280_pressure;Samples;Min_cycle;Max_cycle;Signal;HPM_P1;HPM_P2
2022/12/18 00:02:14;;;;;;;30.93;17.30;;;;;;;-6.88;89.55;103109.59;4963483;28;20293;-74
2022/12/18 00:04:40;;;;;;;30.20;17.07;;;;;;;-6.89;90.20;103111.22;4963792;28;20206;-76
2022/12/18 00:07:05;;;;;;;32.03;17.83;;;;;;;-6.94;90.41;103116.31;4941901;28;20235;-74
2022/12/18 00:09:31;;;;;;;32.53;17.33;;;;;;;-6.95;90.19;103126.97;4946860;28;20223;-74
2022/12/18 00:11:56;;;;;;;31.37;17.57;;;;;;;-6.95;90.41;103124.50;4964046;28;20184;-73
2022/12/18 00:14:22;;;;;;;32.50;17.90;;;;;;;-6.87;90.99;103117.25;4962545;28;20218;-74
2022/12/18 00:16:47;;;;;;;29.00;17.03;;;;;;;-6.77;92.22;103122.66;4965476;28;20215;-74
2022/12/18 00:19:14;;;;;;;28.87;17.33;;;;;;;-6.77;92.35;103119.28;4971945;28;20258;-71
2022/12/18 00:21:40;;;;;;;30.70;16.57;;;;;;;-6.77;92.90;103120.16;4970996;28;20244;-70
2022/12/18 00:24:06;;;;;;;30.43;17.20;;;;;;;-6.83;92.35;103123.50;4969728;28;20557;-74
2022/12/18 00:26:33;;;;;;;29.03;16.03;;;;;;;-6.87;92.27;103122.22;4971567;28;21011;-74
2022/12/18 00:29:13;;;;;;;26.77;16.87;;;;;;;-6.93;91.87;103125.56;4971984;28;20199;-74
2022/12/18 00:31:41;;;;;;;33.70;17.67;;;;;;;-6.95;91.52;103117.03;4972707;28;20452;-71
2022/12/18 00:34:11;;;;;;;45.13;21.00;;;;;;;-6.95;91.15;103131.94;4950665;28;20540;-72
2022/12/18 00:36:40;;;;;;;38.77;18.93;;;;;;;-6.99;91.14;103138.16;4967337;28;20522;-76
2022/12/18 00:39:06;;;;;;;30.37;17.03;;;;;;;-6.98;90.95;103139.03;4953335;28;20460;-74
2022/12/18 00:44:17;;;;;;;29.73;15.50;;;;;;;-7.04;90.85;103155.69;4961066;28;20204;-74
2022/12/18 00:46:43;;;;;;;28.30;16.30;;;;;;;-7.05;90.91;103144.81;4949417;28;20478;-72
2022/12/18 00:49:13;;;;;;;33.00;16.63;;;;;;;-7.06;91.14;103149.59;4953476;28;20978;-74
2022/12/18 00:51:39;;;;;;;28.10;15.50;;;;;;;-7.07;91.20;103151.22;4966452;28;20456;-74
2022/12/18 00:54:04;;;;;;;26.90;15.03;;;;;;;-7.05;90.79;103149.81;4966383;28;20508;-75
2022/12/18 00:56:30;;;;;;;35.23;16.77;;;;;;;-7.07;90.55;103146.25;4968871;28;20196;-74
2022/12/18 00:58:56;;;;;;;32.37;16.30;;;;;;;-7.07;91.09;103147.81;4967541;28;20535;-74
2022/12/18 01:01:21;;;;;;;30.63;15.97;;;;;;;-7.13;90.57;103150.47;4949099;28;20469;-74
2022/12/18 01:03:47;;;;;;;29.80;17.10;;;;;;;-7.17;90.51;103145.81;4966556;28;20773;-74
2022/12/18 01:06:14;;;;;;;31.87;16.17;;;;;;;-7.18;90.76;103151.47;4966663;28;20713;-76
2022/12/18 01:08:40;;;;;;;28.00;15.33;;;;;;;-7.19;90.33;103148.81;4969831;28;20203;-74
2022/12/18 01:11:11;;;;;;;29.23;16.57;;;;;;;-7.18;90.58;103150.59;4950322;28;20472;-74
2022/12/18 01:13:37;;;;;;;29.63;15.73;;;;;;;-7.14;90.96;103160.22;4969412;28;20590;-75
2022/12/18 01:16:03;;;;;;;26.70;15.93;;;;;;;-7.07;91.39;103150.31;4948471;28;20454;-76
2022/12/18 01:18:29;;;;;;;29.37;15.17;;;;;;;-7.01;91.93;103153.59;4946165;28;20473;-76
2022/12/18 01:20:57;;;;;;;27.90;15.83;;;;;;;-7.07;92.52;103163.66;4970106;28;20196;-74
2022/12/18 01:23:23;;;;;;;31.40;16.73;;;;;;;-7.10;92.26;103159.91;4953306;28;20442;-74
2022/12/18 01:25:51;;;;;;;29.43;15.03;;;;;;;-7.19;91.83;103162.13;4950465;28;20677;-74
2022/12/18 01:28:17;;;;;;;28.00;16.00;;;;;;;-7.25;91.54;103158.88;4964152;28;20561;-72
2022/12/18 01:30:42;;;;;;;25.97;15.13;;;;;;;-7.30;90.66;103166.44;4970010;28;20198;-76
2022/12/18 01:33:07;;;;;;;26.43;15.50;;;;;;;-7.38;90.69;103164.59;4968363;28;20225;-76
2022/12/18 01:35:42;;;;;;;30.00;16.30;;;;;;;-7.35;90.54;103160.91;4950364;28;20242;-74
2022/12/18 01:38:08;;;;;;;29.23;16.30;;;;;;;-7.29;90.53;103145.84;4969838;28;20491;-76
2022/12/18 01:40:34;;;;;;;31.20;16.10;;;;;;;-7.27;90.93;103137.00;4968700;28;20450;-76
2022/12/18 01:43:00;;;;;;;25.20;15.37;;;;;;;-7.23;91.28;103139.16;4950560;28;20771;-77
2022/12/18 01:45:31;;;;;;;24.47;14.77;;;;;;;-7.28;91.14;103142.69;4948264;28;20448;-72
2022/12/18 01:48:03;;;;;;;26.10;15.33;;;;;;;-7.32;90.63;103143.84;4963190;28;20204;-73
2022/12/18 01:50:31;;;;;;;28.87;15.50;;;;;;;-7.24;91.51;103132.41;4971053;28;20452;-74
2022/12/18 01:52:59;;;;;;;25.63;15.10;;;;;;;-7.21;91.68;103141.16;4968040;28;20490;-76
2022/12/18 01:55:29;;;;;;;26.87;15.50;;;;;;;-7.21;92.24;103146.13;4962599;28;20959;-74
2022/12/18 01:57:57;;;;;;;25.83;14.93;;;;;;;-7.29;92.03;103151.72;4948816;28;20475;-74
2022/12/18 02:00:24;;;;;;;26.97;15.20;;;;;;;-7.30;92.11;103151.53;4967755;28;20465;-72
2022/12/18 02:02:50;;;;;;;28.17;14.67;;;;;;;-7.32;91.50;103152.94;4967118;28;20456;-73
2022/12/18 02:05:35;;;;;;;24.97;14.80;;;;;;;-7.36;91.28;103165.69;4949129;28;20446;-76
2022/12/18 02:08:14;;;;;;;26.70;14.57;;;;;;;-7.44;91.12;103163.81;4970821;28;21102;-74
2022/12/18 02:11:04;;;;;;;27.33;14.60;;;;;;;-7.51;90.40;103166.22;4947601;28;20975;-73
2022/12/18 02:13:44;;;;;;;25.30;13.93;;;;;;;-7.56;89.92;103180.53;4970124;28;20830;-73
2022/12/18 02:16:34;;;;;;;25.47;13.83;;;;;;;-7.57;89.86;103171.31;4948732;28;20498;-73
2022/12/18 02:19:30;;;;;;;26.00;15.00;;;;;;;-7.61;89.29;103168.25;4968698;28;20452;-74
2022/12/18 02:22:13;;;;;;;29.87;15.43;;;;;;;-7.66;89.26;103171.72;4921767;28;20447;-74
2022/12/18 02:25:06;;;;;;;23.90;14.53;;;;;;;-7.68;88.87;103171.56;4953035;28;20445;-73
2022/12/18 02:27:35;;;;;;;25.00;14.63;;;;;;;-7.72;88.88;103170.94;4948036;28;20491;-73
2022/12/18 02:30:02;;;;;;;21.27;13.97;;;;;;;-7.77;88.85;103172.84;4935170;28;20447;-74
2022/12/18 02:32:37;;;;;;;23.77;13.63;;;;;;;-7.82;88.55;103175.44;4949977;28;20526;-74
2022/12/18 02:35:05;;;;;;;28.03;14.20;;;;;;;-7.81;88.34;103179.72;4968897;28;20785;-74
2022/12/18 02:37:34;;;;;;;24.87;14.53;;;;;;;-7.83;88.39;103184.47;4959561;28;20496;-73
2022/12/18 02:40:03;;;;;;;23.40;13.87;;;;;;;-7.85;88.18;103177.53;4968223;28;20447;-73
2022/12/18 02:42:30;;;;;;;24.27;14.60;;;;;;;-7.85;88.21;103180.00;4954023;28;20821;-73
2022/12/18 02:44:57;;;;;;;23.10;13.53;;;;;;;-7.87;88.38;103189.75;4946514;28;20460;-74
2022/12/18 02:47:29;;;;;;;27.53;13.70;;;;;;;-7.91;88.54;103195.03;4968559;28;20486;-76
2022/12/18 02:50:26;;;;;;;22.60;13.50;;;;;;;-7.98;88.54;103211.41;4965597;28;20472;-73
2022/12/18 02:53:27;;;;;;;23.53;13.47;;;;;;;-7.97;88.24;103208.25;4952374;28;20498;-73
2022/12/18 02:56:17;;;;;;;19.47;13.57;;;;;;;-7.87;88.82;103196.31;4967629;28;20538;-74
2022/12/18 02:58:52;;;;;;;26.63;13.90;;;;;;;-7.78;89.62;103190.06;4966327;28;20965;-74
2022/12/18 03:01:47;;;;;;;21.37;13.63;;;;;;;-7.71;90.38;103185.16;4966361;28;20447;-72
2022/12/18 03:04:30;;;;;;;25.57;14.20;;;;;;;-7.64;91.00;103172.81;4963970;28;21042;-72
2022/12/18 03:07:04;;;;;;;25.03;15.20;;;;;;;-7.60;91.91;103177.50;4965976;28;21021;-70
2022/12/18 03:09:45;;;;;;;27.73;15.10;;;;;;;-7.60;92.29;103185.81;4950458;28;20962;-72
2022/12/18 03:12:31;;;;;;;28.77;15.97;;;;;;;-7.61;92.39;103180.69;4966694;28;20455;-71
2022/12/18 03:15:10;;;;;;;26.10;14.13;;;;;;;-7.61;92.82;103185.66;4968505;28;20451;-72
2022/12/18 03:17:40;;;;;;;22.63;14.80;;;;;;;-7.64;92.79;103183.63;4956360;28;20478;-71
2022/12/18 03:20:11;;;;;;;27.00;14.83;;;;;;;-7.62;92.74;103192.22;4945727;28;20919;-71
2022/12/18 03:22:38;;;;;;;28.30;16.00;;;;;;;-7.65;92.65;103181.88;4947977;28;20502;-72
2022/12/18 03:25:07;;;;;;;28.47;15.40;;;;;;;-7.62;92.49;103184.75;4964312;28;20457;-73
2022/12/18 03:27:40;;;;;;;29.13;14.83;;;;;;;-7.64;92.46;103183.63;4962345;28;20483;-72
2022/12/18 03:30:12;;;;;;;30.03;14.83;;;;;;;-7.71;92.49;103192.59;4951666;28;20505;-73
2022/12/18 03:32:52;;;;;;;27.17;14.57;;;;;;;-7.75;92.23;103190.44;4966483;28;20446;-73
2022/12/18 03:35:26;;;;;;;29.57;15.60;;;;;;;-7.76;91.81;103201.06;4948327;28;20478;-73
2022/12/18 03:37:51;;;;;;;29.50;15.50;;;;;;;-7.76;91.96;103203.56;4951202;28;20498;-73
2022/12/18 03:40:21;;;;;;;26.83;15.30;;;;;;;-7.77;91.74;103197.72;4951526;28;20473;-73
2022/12/18 03:42:53;;;;;;;23.47;14.30;;;;;;;-7.78;91.22;103210.81;4967889;28;20185;-73
2022/12/18 03:45:26;;;;;;;25.27;14.43;;;;;;;-7.85;91.14;103204.84;4944031;28;20458;-72
2022/12/18 03:48:07;;;;;;;25.90;15.63;;;;;;;-7.87;90.66;103201.28;4968248;28;20482;-72
2022/12/18 03:51:04;;;;;;;26.73;15.80;;;;;;;-7.93;90.92;103198.03;4960901;28;20447;-74
2022/12/18 03:53:44;;;;;;;25.43;13.80;;;;;;;-7.93;90.68;103203.00;4963557;28;20438;-76
2022/12/18 03:56:14;;;;;;;26.00;14.27;;;;;;;-7.93;90.33;103208.84;4967642;28;20474;-73
2022/12/18 03:58:42;;;;;;;26.83;14.83;;;;;;;-7.94;90.43;103203.66;4960739;28;20529;-72
2022/12/18 04:01:17;;;;;;;25.67;15.17;;;;;;;-7.91;90.53;103204.06;4945215;28;20809;-73
2022/12/18 04:03:46;;;;;;;25.47;13.97;;;;;;;-7.95;90.61;103199.41;4965902;28;20436;-73
2022/12/18 04:06:14;;;;;;;23.80;14.73;;;;;;;-8.01;90.74;103197.00;4953012;28;20478;-70
2022/12/18 04:08:41;;;;;;;25.87;14.30;;;;;;;-8.00;90.20;103193.84;4965635;28;20447;-74
2022/12/18 04:11:10;;;;;;;24.20;13.83;;;;;;;-7.96;90.30;103191.06;4963136;28;20542;-73
2022/12/18 04:13:37;;;;;;;27.80;15.43;;;;;;;-7.95;90.71;103194.44;4970142;28;20506;-75
2022/12/18 04:16:07;;;;;;;26.20;15.53;;;;;;;-7.96;91.17;103201.00;4963948;28;20443;-71
2022/12/18 04:18:34;;;;;;;27.07;16.07;;;;;;;-7.97;90.80;103194.22;4966397;28;20501;-75
2022/12/18 04:21:01;;;;;;;27.60;14.77;;;;;;;-7.95;91.14;103196.91;4966353;28;20439;-73
2022/12/18 04:23:26;;;;;;;31.57;16.80;;;;;;;-7.98;91.34;103191.53;4964356;28;20513;-73
2022/12/18 04:25:55;;;;;;;25.70;15.43;;;;;;;-7.94;91.45;103187.19;4948331;28;20470;-73
2022/12/18 04:28:35;;;;;;;29.87;15.70;;;;;;;-7.90;91.95;103196.81;4948424;28;20501;-72
2022/12/18 04:31:00;;;;;;;30.80;16.93;;;;;;;-7.87;92.26;103193.84;4938688;28;20481;-73
2022/12/18 04:33:26;;;;;;;33.70;17.23;;;;;;;-7.80;92.48;103188.94;4965488;28;20290;-73
2022/12/18 04:35:52;;;;;;;28.53;16.53;;;;;;;-7.72;92.98;103190.81;4964519;28;20795;-72
2022/12/18 04:38:18;;;;;;;31.60;17.07;;;;;;;-7.69;94.03;103194.59;4968837;28;20219;-72
2022/12/18 04:40:45;;;;;;;30.40;16.50;;;;;;;-7.69;93.50;103198.69;4966718;28;20197;-76
2022/12/18 04:43:19;;;;;;;31.27;17.67;;;;;;;-7.67;93.84;103197.28;4962300;28;20461;-73
2022/12/18 04:45:44;;;;;;;33.63;18.17;;;;;;;-7.68;94.21;103193.00;4962862;28;22417;-72
2022/12/18 04:48:10;;;;;;;30.93;16.97;;;;;;;-7.66;94.25;103186.63;4962509;28;20223;-72
2022/12/18 04:50:35;;;;;;;31.97;16.97;;;;;;;-7.69;94.18;103198.69;4959945;28;20204;-73
2022/12/18 04:53:01;;;;;;;29.33;16.70;;;;;;;-7.73;93.89;103197.41;4964308;28;20208;-73
2022/12/18 04:55:26;;;;;;;34.10;17.63;;;;;;;-7.78;93.66;103195.91;4961331;28;20210;-71
2022/12/18 04:57:52;;;;;;;34.90;16.90;;;;;;;-7.83;93.23;103193.53;4965622;28;20258;-72
2022/12/18 05:00:18;;;;;;;27.10;16.57;;;;;;;-7.87;92.97;103194.72;4966313;28;20204;-72
2022/12/18 05:02:44;;;;;;;28.20;15.53;;;;;;;-7.89;92.65;103201.09;4964616;28;20199;-72
2022/12/18 05:05:09;;;;;;;32.93;16.53;;;;;;;-7.93;92.47;103188.97;4952991;28;20900;-73
2022/12/18 05:07:35;;;;;;;25.87;15.87;;;;;;;-7.92;91.92;103199.81;4965647;28;20715;-73
2022/12/18 05:10:00;;;;;;;30.50;16.03;;;;;;;-7.99;91.89;103217.09;4972296;28;20207;-72
2022/12/18 05:12:26;;;;;;;30.57;15.23;;;;;;;-8.01;91.20;103209.44;4969175;28;20280;-70
2022/12/18 05:14:51;;;;;;;27.90;16.50;;;;;;;-8.05;91.14;103214.72;4972011;28;20247;-72
2022/12/18 05:17:17;;;;;;;31.87;15.40;;;;;;;-8.05;90.79;103222.19;4970715;28;20225;-71
2022/12/18 05:19:43;;;;;;;35.20;16.57;;;;;;;-8.06;90.59;103212.03;4970642;28;20236;-73
2022/12/18 05:22:09;;;;;;;28.00;16.40;;;;;;;-8.11;90.49;103215.53;4970155;28;20231;-73
2022/12/18 05:24:35;;;;;;;29.17;15.50;;;;;;;-8.15;90.35;103220.78;4967041;28;21160;-74
2022/12/18 05:27:00;;;;;;;26.90;15.73;;;;;;;-8.18;90.15;103230.31;4967334;28;20509;-74
2022/12/18 05:29:26;;;;;;;31.53;16.63;;;;;;;-8.22;89.59;103226.56;4967460;28;20213;-73
2022/12/18 05:31:51;;;;;;;28.10;15.40;;;;;;;-8.25;89.56;103240.19;4968090;28;20388;-73
2022/12/18 05:34:17;;;;;;;29.40;15.90;;;;;;;-8.30;89.60;103237.09;4968763;28;20246;-73
2022/12/18 05:36:42;;;;;;;31.27;16.43;;;;;;;-8.37;89.01;103244.44;4960760;28;20847;-73
2022/12/18 05:39:09;;;;;;;28.23;15.17;;;;;;;-8.37;89.05;103246.00;4970537;28;20230;-73
2022/12/18 05:41:34;;;;;;;33.50;16.63;;;;;;;-8.35;89.23;103245.53;4966550;28;20207;-73
2022/12/18 05:44:00;;;;;;;31.20;16.47;;;;;;;-8.32;89.41;103240.97;4966017;28;20537;-73
2022/12/18 05:46:26;;;;;;;38.03;17.10;;;;;;;-8.34;89.30;103246.44;4964361;28;20262;-73
2022/12/18 05:48:51;;;;;;;35.37;16.53;;;;;;;-8.38;89.23;103257.50;4949458;28;20203;-73
2022/12/18 05:51:19;;;;;;;35.03;18.53;;;;;;;-8.34;89.76;103254.75;4954472;28;20203;-73
2022/12/18 05:53:45;;;;;;;29.03;16.03;;;;;;;-8.36;89.38;103250.28;4963149;28;20608;-73
2022/12/18 05:56:14;;;;;;;33.60;15.83;;;;;;;-8.35;89.53;103244.59;4964383;28;20441;-75
2022/12/18 05:58:41;;;;;;;32.37;17.07;;;;;;;-8.38;90.03;103245.09;4965508;28;20501;-72
2022/12/18 06:01:13;;;;;;;27.90;15.50;;;;;;;-8.25;90.40;103236.09;4971489;28;20446;-73
2022/12/18 06:03:39;;;;;;;33.30;16.00;;;;;;;-8.30;90.86;103243.66;4970013;28;20931;-74
2022/12/18 06:06:16;;;;;;;33.73;17.77;;;;;;;-8.26;90.92;103245.81;4962721;28;20476;-74
2022/12/18 06:08:42;;;;;;;31.00;17.07;;;;;;;-8.29;91.16;103251.28;4964053;28;20469;-72
2022/12/18 06:11:07;;;;;;;34.27;16.83;;;;;;;-8.26;91.32;103246.72;4970176;28;20521;-74
2022/12/18 06:13:33;;;;;;;30.43;16.20;;;;;;;-8.23;91.71;103238.78;4970460;28;20207;-73
2022/12/18 06:16:02;;;;;;;32.73;17.47;;;;;;;-8.26;91.73;103238.38;4963024;28;20234;-72
2022/12/18 06:18:27;;;;;;;29.93;17.13;;;;;;;-8.18;92.06;103247.69;4967316;28;20223;-74
2022/12/18 06:20:56;;;;;;;34.17;17.50;;;;;;;-8.17;92.31;103249.47;4966855;28;20442;-72
2022/12/18 06:23:23;;;;;;;31.03;16.93;;;;;;;-8.19;92.15;103259.22;4966474;28;20206;-74
2022/12/18 06:25:48;;;;;;;29.80;16.83;;;;;;;-8.21;92.30;103257.28;4960342;28;20477;-74
2022/12/18 06:28:14;;;;;;;35.70;17.50;;;;;;;-8.20;92.25;103259.91;4965257;28;20964;-74
2022/12/18 06:30:39;;;;;;;36.60;17.53;;;;;;;-8.18;92.43;103255.13;4960029;28;20197;-70
2022/12/18 06:33:04;;;;;;;35.30;17.30;;;;;;;-8.16;92.59;103266.19;4966407;28;20206;-74
2022/12/18 06:35:32;;;;;;;35.83;18.90;;;;;;;-8.16;92.66;103273.63;4963679;28;20617;-74
2022/12/18 06:37:57;;;;;;;34.47;18.00;;;;;;;-8.08;92.84;103266.47;4947290;28;20223;-73
2022/12/18 06:40:22;;;;;;;32.73;18.37;;;;;;;-8.07;93.18;103278.19;4963788;28;20527;-74
2022/12/18 06:42:48;;;;;;;34.07;18.17;;;;;;;-8.03;93.48;103267.97;4961284;28;20695;-73
2022/12/18 06:45:13;;;;;;;35.60;18.50;;;;;;;-8.00;93.39;103269.97;4961765;28;20207;-72
2022/12/18 06:47:39;;;;;;;32.90;17.73;;;;;;;-8.01;93.36;103281.47;4962972;28;20708;-74
2022/12/18 06:50:05;;;;;;;36.20;18.53;;;;;;;-8.08;93.12;103295.38;4958794;28;20206;-73
2022/12/18 06:52:32;;;;;;;33.43;17.70;;;;;;;-8.13;92.65;103298.84;4963580;28;20200;-73
2022/12/18 06:54:57;;;;;;;34.17;17.83;;;;;;;-8.22;92.62;103288.66;4962355;28;20465;-73
2022/12/18 06:57:23;;;;;;;34.43;16.53;;;;;;;-8.26;91.98;103288.94;4970345;28;20967;-74
2022/12/18 06:59:48;;;;;;;35.07;17.40;;;;;;;-8.31;91.44;103301.44;4965393;28;20283;-73
2022/12/18 07:02:14;;;;;;;32.13;17.60;;;;;;;-8.35;90.98;103304.19;4969479;28;20198;-74
2022/12/18 07:04:39;;;;;;;36.80;18.50;;;;;;;-8.28;91.40;103302.75;4962594;28;20202;-71
2022/12/18 07:07:05;;;;;;;31.33;18.17;;;;;;;-8.31;91.43;103303.91;4960848;28;20651;-72
2022/12/18 07:09:30;;;;;;;34.43;17.13;;;;;;;-8.22;91.05;103292.72;4967401;28;20714;-73
2022/12/18 07:11:56;;;;;;;30.13;17.63;;;;;;;-8.19;91.30;103289.03;4962894;28;20201;-73
2022/12/18 07:14:21;;;;;;;34.70;18.23;;;;;;;-8.18;91.84;103289.91;4963838;28;20199;-73
2022/12/18 07:16:47;;;;;;;36.60;18.00;;;;;;;-8.23;91.70;103281.00;4951866;28;20224;-73
2022/12/18 07:19:12;;;;;;;34.80;18.43;;;;;;;-8.19;91.39;103280.69;4965579;28;20679;-74
2022/12/18 07:21:38;;;;;;;35.33;18.17;;;;;;;-8.19;91.63;103280.69;4960823;28;20643;-72
2022/12/18 07:24:04;;;;;;;36.67;17.83;;;;;;;-8.15;91.92;103290.31;4962383;28;20203;-74
2022/12/18 07:26:29;;;;;;;34.27;18.23;;;;;;;-8.19;91.70;103303.94;4960040;28;20216;-75
2022/12/18 07:28:57;;;;;;;36.43;19.67;;;;;;;-8.15;91.85;103302.75;4963329;28;21002;-73
2022/12/18 07:31:23;;;;;;;39.27;18.73;;;;;;;-8.12;92.14;103308.09;4962527;28;20744;-74
2022/12/18 07:33:50;;;;;;;37.93;19.10;;;;;;;-8.07;92.32;103309.63;4964144;28;20549;-73
2022/12/18 07:36:16;;;;;;;35.63;18.43;;;;;;;-8.07;92.31;103312.97;4964540;28;20446;-74
2022/12/18 07:38:41;;;;;;;38.10;19.37;;;;;;;-8.07;92.59;103307.13;4963887;28;20729;-72
2022/12/18 07:41:10;;;;;;;38.00;18.60;;;;;;;-8.02;92.91;103316.97;4953339;28;20481;-72
2022/12/18 07:43:36;;;;;;;35.03;18.33;;;;;;;-7.98;92.70;103308.31;4950885;28;20667;-73
2022/12/18 07:46:02;;;;;;;36.70;19.03;;;;;;;-7.98;92.71;103315.75;4969978;28;21036;-73
2022/12/18 07:48:28;;;;;;;35.90;17.73;;;;;;;-7.95;92.51;103323.63;4964991;28;20551;-72
2022/12/18 07:51:00;;;;;;;36.97;17.90;;;;;;;-7.91;92.72;103319.28;4970014;28;20509;-73
2022/12/18 07:53:26;;;;;;;35.87;17.63;;;;;;;-7.91;92.45;103319.28;4959458;28;20869;-71
2022/12/18 07:56:00;;;;;;;40.87;19.60;;;;;;;-7.90;92.63;103327.59;4964280;28;20864;-72
2022/12/18 07:58:25;;;;;;;41.20;18.73;;;;;;;-7.90;92.12;103321.06;4964771;28;20470;-73
2022/12/18 08:00:52;;;;;;;41.53;19.13;;;;;;;-7.81;92.12;103328.81;4964480;28;20456;-74
2022/12/18 08:03:18;;;;;;;38.10;18.13;;;;;;;-7.74;92.21;103326.44;4959563;28;20203;-74
2022/12/18 08:05:43;;;;;;;36.93;19.00;;;;;;;-7.70;92.03;103314.59;4960149;28;20451;-74
2022/12/18 08:08:09;;;;;;;37.90;18.13;;;;;;;-7.65;92.11;103320.19;4965723;28;20570;-74
2022/12/18 08:10:34;;;;;;;41.00;19.47;;;;;;;-7.63;91.61;103327.16;4961640;28;20200;-73
2022/12/18 08:13:00;;;;;;;34.90;17.80;;;;;;;-7.59;91.22;103323.47;4964463;28;20198;-74
2022/12/18 08:15:25;;;;;;;38.37;19.10;;;;;;;-7.55;91.71;103324.03;4960159;28;20201;-73
2022/12/18 08:17:51;;;;;;;40.73;18.93;;;;;;;-7.52;91.65;103326.03;4955368;28;20236;-73
2022/12/18 08:20:18;;;;;;;38.87;18.77;;;;;;;-7.49;91.14;103318.97;4963725;28;20207;-75
2022/12/18 08:22:44;;;;;;;41.93;19.30;;;;;;;-7.44;91.13;103315.50;4960606;28;20600;-74
2022/12/18 08:25:10;;;;;;;48.83;22.57;;;;;;;-7.38;91.16;103303.88;4961571;28;20915;-74
2022/12/18 08:27:36;;;;;;;43.10;20.13;;;;;;;-7.34;91.51;103304.44;4965877;28;20567;-73
2022/12/18 08:30:03;;;;;;;36.07;18.33;;;;;;;-7.31;91.45;103296.47;4962738;28;20927;-72
2022/12/18 08:32:29;;;;;;;35.93;19.03;;;;;;;-7.21;91.18;103299.44;4964926;28;20548;-71
2022/12/18 08:34:54;;;;;;;35.73;17.57;;;;;;;-7.12;91.10;103306.50;4952158;28;20542;-72
2022/12/18 08:37:20;;;;;;;39.93;19.53;;;;;;;-7.12;91.85;103295.63;4963883;28;20217;-71
2022/12/18 08:39:45;;;;;;;37.57;17.83;;;;;;;-7.03;90.90;103299.31;4951532;28;20263;-74
2022/12/18 08:44:55;;;;;;;45.57;24.03;;;;;;;-6.95;91.06;103296.19;4972565;28;20188;-75
2022/12/18 08:47:20;;;;;;;50.50;25.57;;;;;;;-6.91;90.61;103294.28;4969789;28;20486;-73
2022/12/18 08:49:45;;;;;;;40.93;20.97;;;;;;;-6.81;91.11;103291.38;4967704;28;20204;-74
2022/12/18 08:52:11;;;;;;;40.97;21.17;;;;;;;-6.81;91.12;103297.22;4969065;28;20214;-73
2022/12/18 08:54:39;;;;;;;44.57;20.50;;;;;;;-6.75;90.58;103294.63;4962263;28;20354;-69
2022/12/18 08:57:05;;;;;;;39.67;19.23;;;;;;;-6.70;90.75;103301.06;4967124;28;20551;-73
2022/12/18 08:59:30;;;;;;;34.87;18.10;;;;;;;-6.65;91.07;103298.47;4947174;28;20215;-72
2022/12/18 09:01:55;;;;;;;39.17;19.27;;;;;;;-6.57;90.69;103296.94;4966649;28;20218;-73
2022/12/18 09:04:22;;;;;;;39.20;19.33;;;;;;;-6.52;91.07;103296.81;4966256;28;20211;-72
2022/12/18 09:06:47;;;;;;;37.80;18.17;;;;;;;-6.46;90.80;103302.56;4963223;28;20231;-74
2022/12/18 09:09:13;;;;;;;39.97;20.07;;;;;;;-6.43;90.55;103312.94;4965620;28;20447;-71
2022/12/18 09:11:38;;;;;;;37.37;18.93;;;;;;;-6.38;90.36;103308.50;4963397;28;20690;-72
2022/12/18 09:14:04;;;;;;;39.53;19.10;;;;;;;-6.34;90.39;103301.63;4961583;28;20195;-73
2022/12/18 09:16:31;;;;;;;47.07;18.60;;;;;;;-6.24;90.70;103303.63;4965508;28;20302;-72
2022/12/18 09:19:00;;;;;;;38.03;18.87;;;;;;;-6.21;90.24;103299.06;4970025;28;20200;-73
2022/12/18 09:21:29;;;;;;;42.93;22.10;;;;;;;-6.22;90.63;103293.16;4943242;28;20464;-72
2022/12/18 09:23:55;;;;;;;39.70;19.50;;;;;;;-6.16;89.87;103291.44;4971137;28;20450;-72
2022/12/18 09:26:22;;;;;;;37.10;19.43;;;;;;;-6.03;90.58;103289.72;4961365;28;21349;-73
2022/12/18 09:28:49;;;;;;;38.40;20.57;;;;;;;-5.98;89.69;103291.19;4951749;28;20459;-72
2022/12/18 09:31:15;;;;;;;41.60;19.03;;;;;;;-5.93;90.08;103294.28;4968084;28;20467;-75
2022/12/18 09:33:41;;;;;;;38.07;19.50;;;;;;;-5.81;89.73;103299.16;4968522;28;20443;-72
2022/12/18 09:36:09;;;;;;;36.00;18.23;;;;;;;-5.79;89.64;103292.75;4969107;28;20963;-71
2022/12/18 09:38:35;;;;;;;35.73;17.83;;;;;;;-5.72;89.56;103285.28;4966191;28;20224;-73
2022/12/18 09:41:19;;;;;;;41.00;18.67;;;;;;;-5.63;89.39;103276.44;4949857;28;21000;-73
2022/12/18 09:43:52;;;;;;;39.83;18.73;;;;;;;-5.68;88.84;103286.53;4965308;28;21125;-73
2022/12/18 09:46:27;;;;;;;32.93;17.67;;;;;;;-5.57;89.25;103286.28;4966102;28;20914;-73
2022/12/18 09:48:58;;;;;;;36.30;19.60;;;;;;;-5.36;88.96;103287.25;4966179;28;20448;-73
2022/12/18 09:51:29;;;;;;;42.47;22.57;;;;;;;-5.17;88.51;103283.78;4963713;28;20463;-75
2022/12/18 09:53:59;;;;;;;44.73;20.73;;;;;;;-4.57;88.70;103288.56;4967607;28;20495;-70
2022/12/18 09:56:28;;;;;;;39.97;19.73;;;;;;;-4.45;87.99;103291.59;4959965;28;20432;-73
2022/12/18 09:58:58;;;;;;;44.13;21.80;;;;;;;-4.05;86.51;103285.53;4965923;28;20870;-71
2022/12/18 10:01:25;;;;;;;40.47;20.53;;;;;;;-3.75;84.82;103284.03;4963452;28;20494;-74
2022/12/18 10:03:52;;;;;;;39.37;18.73;;;;;;;-3.60;83.04;103284.19;4962835;28;20468;-71
2022/12/18 10:06:47;;;;;;;37.07;19.43;;;;;;;-3.33;81.96;103279.81;4966679;28;20493;-70
2022/12/18 10:09:45;;;;;;;34.57;17.83;;;;;;;-3.47;80.88;103288.97;4954298;28;21114;-73
2022/12/18 10:12:21;;;;;;;35.50;18.80;;;;;;;-3.10;80.41;103287.38;4965098;28;20467;-71
2022/12/18 10:15:15;;;;;;;34.67;18.43;;;;;;;-2.64;79.17;103276.75;4969289;28;20952;-71
2022/12/18 10:18:00;;;;;;;32.83;18.07;;;;;;;-2.57;78.95;103272.56;4970983;28;20555;-71
2022/12/18 10:20:37;;;;;;;35.77;18.43;;;;;;;-2.38;77.23;103273.88;4964912;28;20969;-72
2022/12/18 10:23:23;;;;;;;36.23;17.37;;;;;;;-2.17;76.98;103280.31;4961305;28;20440;-71
2022/12/18 10:26:01;;;;;;;38.40;18.77;;;;;;;-2.34;76.56;103287.66;4967110;28;20201;-72
2022/12/18 10:28:29;;;;;;;36.07;19.17;;;;;;;-1.84;76.47;103283.97;4961918;28;20224;-74
2022/12/18 10:30:54;;;;;;;31.57;17.10;;;;;;;1.37;69.21;103254.06;4974917;28;20247;-74
2022/12/18 10:33:23;;;;;;;32.27;17.00;;;;;;;3.93;57.46;103243.69;4966101;28;20200;-73
2022/12/18 10:35:52;;;;;;;31.63;17.50;;;;;;;2.47;55.92;103259.31;4961956;28;20295;-75
2022/12/18 10:38:17;;;;;;;33.43;17.40;;;;;;;0.49;62.68;103279.03;4964407;28;20236;-75
2022/12/18 10:41:03;;;;;;;32.07;18.13;;;;;;;0.23;64.54;103289.06;4967199;28;20288;-75
2022/12/18 10:43:32;;;;;;;32.27;17.50;;;;;;;-0.57;67.30;103295.09;4965316;28;20246;-75
2022/12/18 10:46:07;;;;;;;32.27;16.70;;;;;;;-0.27;68.43;103293.19;4961570;28;20256;-73
2022/12/18 10:48:35;;;;;;;29.83;17.30;;;;;;;-0.18;68.46;103283.16;4962838;28;20234;-74
2022/12/18 10:51:03;;;;;;;34.97;18.07;;;;;;;-0.50;70.36;103284.91;4965217;28;20197;-71
2022/12/18 10:53:31;;;;;;;28.97;16.73;;;;;;;-0.47;71.45;103281.81;4961005;28;20209;-76
2022/12/18 10:55:58;;;;;;;28.57;16.53;;;;;;;-0.18;70.67;103273.97;4964423;28;20196;-74
2022/12/18 10:58:26;;;;;;;31.60;17.73;;;;;;;0.38;68.58;103262.00;4961742;28;20305;-75
2022/12/18 11:01:07;;;;;;;28.30;16.53;;;;;;;0.90;67.03;103263.78;4967826;28;20744;-75
2022/12/18 11:03:58;;;;;;;31.37;17.20;;;;;;;1.35;65.74;103257.19;4963145;28;20255;-75
2022/12/18 11:06:24;;;;;;;28.27;16.63;;;;;;;3.90;58.31;103234.94;4966635;28;20220;-75
2022/12/18 11:09:28;;;;;;;29.43;17.23;;;;;;;7.54;48.76;103209.28;4933484;28;20199;-75
2022/12/18 11:11:59;;;;;;;27.03;16.33;;;;;;;6.85;48.71;103224.66;4965314;28;20251;-75
2022/12/18 11:14:26;;;;;;;26.13;16.57;;;;;;;7.25;46.94;103226.75;4969374;28;20203;-75
2022/12/18 11:16:54;;;;;;;25.43;15.10;;;;;;;8.07;45.33;103224.91;4961550;28;20226;-74
2022/12/18 11:19:25;;;;;;;27.17;16.93;;;;;;;6.76;47.13;103231.63;4967218;28;20259;-73
2022/12/18 11:21:51;;;;;;;27.03;15.83;;;;;;;7.76;46.28;103228.72;4963276;28;20663;-75
2022/12/18 11:24:29;;;;;;;24.03;15.67;;;;;;;7.41;45.28;103219.41;4964968;28;20204;-75
2022/12/18 11:26:57;;;;;;;24.37;14.80;;;;;;;6.83;47.40;103224.56;4962234;28;20224;-75